sensor_id;sensor_type;location;lat;lon;timestamp;pressure;altitude;pressure_sealevel;temperature;humidity
47556;BME280;33291;46.222;26.460;2023-02-26T00:01:03;95140.72;;;5.25;83.46
47556;BME280;33291;46.222;26.460;2023-02-26T00:03:36;95110.63;;;5.06;83.29
47556;BME280;33291;46.222;26.460;2023-02-26T00:06:01;95146.69;;;5.25;82.55
47556;BME280;33291;46.222;26.460;2023-02-26T00:08:26;95141.66;;;5.24;82.44
47556;BME280;33291;46.222;26.460;2023-02-26T00:10:52;95149.16;;;5.27;82.42
47556;BME280;33291;46.222;26.460;2023-02-26T00:13:19;95152.69;;;5.26;82.30
47556;BME280;33291;46.222;26.460;2023-02-26T00:15:46;95154.31;;;5.27;82.33
47556;BME280;33291;46.222;26.460;2023-02-26T00:18:14;95149.81;;;5.29;82.29
47556;BME280;33291;46.222;26.460;2023-02-26T00:20:40;95149.69;;;5.30;81.85
47556;BME280;33291;46.222;26.460;2023-02-26T00:23:10;95139.09;;;5.24;82.50
47556;BME280;33291;46.222;26.460;2023-02-26T00:25:38;95123.09;;;5.10;82.47
47556;BME280;33291;46.222;26.460;2023-02-26T00:28:04;95141.13;;;5.20;82.46
47556;BME280;33291;46.222;26.460;2023-02-26T00:30:30;95148.19;;;5.28;82.78
47556;BME280;33291;46.222;26.460;2023-02-26T00:32:56;95147.25;;;5.29;82.64
47556;BME280;33291;46.222;26.460;2023-02-26T00:35:22;95147.25;;;5.29;82.65
47556;BME280;33291;46.222;26.460;2023-02-26T00:38:05;95148.03;;;5.29;83.01
47556;BME280;33291;46.222;26.460;2023-02-26T00:40:35;95140.44;;;5.28;82.94
47556;BME280;33291;46.222;26.460;2023-02-26T00:43:04;95118.88;;;5.09;83.11
47556;BME280;33291;46.222;26.460;2023-02-26T00:45:31;95144.25;;;5.24;83.23
47556;BME280;33291;46.222;26.460;2023-02-26T00:48:21;95134.06;;;5.22;82.88
47556;BME280;33291;46.222;26.460;2023-02-26T00:50:58;95132.59;;;5.20;83.05
47556;BME280;33291;46.222;26.460;2023-02-26T00:56:04;95130.44;;;5.15;83.06
47556;BME280;33291;46.222;26.460;2023-02-26T00:58:29;95129.88;;;5.11;83.08
47556;BME280;33291;46.222;26.460;2023-02-26T01:00:55;95135.59;;;5.15;82.71
47556;BME280;33291;46.222;26.460;2023-02-26T01:03:21;95133.28;;;5.12;83.18
47556;BME280;33291;46.222;26.460;2023-02-26T01:05:46;95138.31;;;5.13;83.32
47556;BME280;33291;46.222;26.460;2023-02-26T01:08:33;95137.63;;;5.11;83.22
47556;BME280;33291;46.222;26.460;2023-02-26T01:11:04;95139.41;;;5.11;82.87
47556;BME280;33291;46.222;26.460;2023-02-26T01:13:30;95135.44;;;5.07;83.10
47556;BME280;33291;46.222;26.460;2023-02-26T01:16:04;95138.59;;;5.10;82.88
47556;BME280;33291;46.222;26.460;2023-02-26T01:21:07;95149.31;;;5.15;82.99
47556;BME280;33291;46.222;26.460;2023-02-26T01:23:39;95152.69;;;5.16;83.40
47556;BME280;33291;46.222;26.460;2023-02-26T01:26:32;95148.22;;;5.18;83.30
47556;BME280;33291;46.222;26.460;2023-02-26T01:28:56;95142.50;;;5.14;83.67
47556;BME280;33291;46.222;26.460;2023-02-26T01:35:01;95135.44;;;5.16;84.01
47556;BME280;33291;46.222;26.460;2023-02-26T01:43:10;95147.56;;;5.06;85.01
47556;BME280;33291;46.222;26.460;2023-02-26T01:46:13;95123.09;;;5.01;85.13
47556;BME280;33291;46.222;26.460;2023-02-26T01:48:53;95147.56;;;5.06;85.26
47556;BME280;33291;46.222;26.460;2023-02-26T01:51:55;95144.31;;;5.04;85.27
47556;BME280;33291;46.222;26.460;2023-02-26T01:54:28;95154.06;;;5.01;85.51
47556;BME280;33291;46.222;26.460;2023-02-26T01:57:06;95123.69;;;4.85;85.50
47556;BME280;33291;46.222;26.460;2023-02-26T01:59:37;95152.31;;;5.01;85.48
47556;BME280;33291;46.222;26.460;2023-02-26T02:02:07;95147.69;;;5.05;85.70
47556;BME280;33291;46.222;26.460;2023-02-26T02:04:34;95139.41;;;5.01;86.41
47556;BME280;33291;46.222;26.460;2023-02-26T02:07:00;95160.06;;;5.01;86.48
47556;BME280;33291;46.222;26.460;2023-02-26T02:09:26;95161.28;;;4.97;86.57
47556;BME280;33291;46.222;26.460;2023-02-26T02:14:31;95176.50;;;5.00;86.40
47556;BME280;33291;46.222;26.460;2023-02-26T02:20:02;95181.09;;;5.06;85.75
47556;BME280;33291;46.222;26.460;2023-02-26T02:26:05;95176.50;;;5.00;85.45
47556;BME280;33291;46.222;26.460;2023-02-26T02:33:57;95165.06;;;4.93;85.38
47556;BME280;33291;46.222;26.460;2023-02-26T02:36:35;95181.66;;;5.00;85.61
47556;BME280;33291;46.222;26.460;2023-02-26T02:39:07;95189.41;;;5.00;85.73
47556;BME280;33291;46.222;26.460;2023-02-26T02:41:44;95182.88;;;4.96;85.61
47556;BME280;33291;46.222;26.460;2023-02-26T02:44:13;95194.56;;;5.00;86.10
47556;BME280;33291;46.222;26.460;2023-02-26T02:46:42;95194.81;;;4.97;85.86
47556;BME280;33291;46.222;26.460;2023-02-26T02:49:41;95189.81;;;4.95;86.03
47556;BME280;33291;46.222;26.460;2023-02-26T02:52:13;95200.94;;;4.96;86.09
47556;BME280;33291;46.222;26.460;2023-02-26T02:54:44;95206.63;;;4.90;86.76
47556;BME280;33291;46.222;26.460;2023-02-26T02:57:21;95198.91;;;4.90;86.80
47556;BME280;33291;46.222;26.460;2023-02-26T02:59:54;95211.78;;;4.90;86.77
47556;BME280;33291;46.222;26.460;2023-02-26T03:05:03;95204.31;;;4.87;86.64
47556;BME280;33291;46.222;26.460;2023-02-26T03:07:34;95220.78;;;4.95;87.00
47556;BME280;33291;46.222;26.460;2023-02-26T03:10:02;95209.22;;;4.90;87.07
47556;BME280;33291;46.222;26.460;2023-02-26T03:12:30;95213.31;;;4.92;86.69
47556;BME280;33291;46.222;26.460;2023-02-26T03:14:58;95213.31;;;4.92;86.62
47556;BME280;33291;46.222;26.460;2023-02-26T03:17:52;95227.69;;;4.95;86.66
47556;BME280;33291;46.222;26.460;2023-02-26T03:20:31;95230.41;;;4.93;87.02
47556;BME280;33291;46.222;26.460;2023-02-26T03:23:07;95210.59;;;4.94;86.86
47556;BME280;33291;46.222;26.460;2023-02-26T03:25:53;95222.50;;;4.95;87.43
47556;BME280;33291;46.222;26.460;2023-02-26T03:36:18;95228.22;;;4.89;87.94
47556;BME280;33291;46.222;26.460;2023-02-26T03:38:50;95223.59;;;4.83;88.15
47556;BME280;33291;46.222;26.460;2023-02-26T03:41:24;95210.69;;;4.83;88.08
47556;BME280;33291;46.222;26.460;2023-02-26T03:44:03;95230.53;;;4.92;87.94
47556;BME280;33291;46.222;26.460;2023-02-26T03:46:40;95209.50;;;4.77;87.99
47556;BME280;33291;46.222;26.460;2023-02-26T03:49:11;95234.22;;;4.89;88.12
47556;BME280;33291;46.222;26.460;2023-02-26T03:51:39;95226.59;;;4.88;88.04
47556;BME280;33291;46.222;26.460;2023-02-26T03:54:20;95236.94;;;4.88;88.38
47556;BME280;33291;46.222;26.460;2023-02-26T03:56:47;95230.41;;;4.84;88.13
47556;BME280;33291;46.222;26.460;2023-02-26T03:59:14;95214.25;;;4.82;88.06
47556;BME280;33291;46.222;26.460;2023-02-26T04:01:55;95223.72;;;4.81;88.01
47556;BME280;33291;46.222;26.460;2023-02-26T04:04:36;95247.91;;;4.90;87.78
47556;BME280;33291;46.222;26.460;2023-02-26T04:07:08;95237.72;;;4.88;87.84
47556;BME280;33291;46.222;26.460;2023-02-26T04:09:34;95227.28;;;4.90;87.77
47556;BME280;33291;46.222;26.460;2023-02-26T04:12:00;95231.63;;;4.89;88.43
47556;BME280;33291;46.222;26.460;2023-02-26T04:14:25;95230.13;;;4.87;88.57
47556;BME280;33291;46.222;26.460;2023-02-26T04:16:51;95232.84;;;4.85;89.14
47556;BME280;33291;46.222;26.460;2023-02-26T04:19:16;95225.78;;;4.77;89.01
47556;BME280;33291;46.222;26.460;2023-02-26T04:21:42;95230.94;;;4.77;88.73
47556;BME280;33291;46.222;26.460;2023-02-26T04:24:09;95222.25;;;4.78;88.83
47556;BME280;33291;46.222;26.460;2023-02-26T04:26:35;95237.19;;;4.85;89.03
47556;BME280;33291;46.222;26.460;2023-02-26T04:29:00;95237.19;;;4.85;89.00
47556;BME280;33291;46.222;26.460;2023-02-26T04:31:26;95246.41;;;4.87;88.91
47556;BME280;33291;46.222;26.460;2023-02-26T04:33:51;95231.22;;;4.84;88.68
47556;BME280;33291;46.222;26.460;2023-02-26T04:36:17;95218.72;;;4.79;88.93
47556;BME280;33291;46.222;26.460;2023-02-26T04:38:42;95244.81;;;4.86;88.66
47556;BME280;33291;46.222;26.460;2023-02-26T04:41:08;95231.47;;;4.81;88.16
47556;BME280;33291;46.222;26.460;2023-02-26T04:43:33;95230.41;;;4.84;88.00
47556;BME280;33291;46.222;26.460;2023-02-26T04:45:59;95246.41;;;4.87;87.91
47556;BME280;33291;46.222;26.460;2023-02-26T04:48:24;95238.13;;;4.84;88.26
47556;BME280;33291;46.222;26.460;2023-02-26T04:50:50;95261.75;;;4.89;88.23
47556;BME280;33291;46.222;26.460;2023-02-26T04:53:15;95250.09;;;4.85;87.91
47556;BME280;33291;46.222;26.460;2023-02-26T04:55:41;95258.66;;;4.85;88.43
47556;BME280;33291;46.222;26.460;2023-02-26T04:58:07;95250.09;;;4.85;88.28
47556;BME280;33291;46.222;26.460;2023-02-26T05:00:33;95264.63;;;4.86;88.55
47556;BME280;33291;46.222;26.460;2023-02-26T05:02:59;95265.84;;;4.82;88.81
47556;BME280;33291;46.222;26.460;2023-02-26T05:05:25;95246.41;;;4.77;89.13
47556;BME280;33291;46.222;26.460;2023-02-26T05:07:50;95275.47;;;4.79;89.25
47556;BME280;33291;46.222;26.460;2023-02-26T05:10:19;95291.38;;;4.85;90.04
47556;BME280;33291;46.222;26.460;2023-02-26T05:12:45;95277.78;;;4.83;90.43
47556;BME280;33291;46.222;26.460;2023-02-26T05:15:10;95282.28;;;4.80;90.82
47556;BME280;33291;46.222;26.460;2023-02-26T05:17:36;95290.28;;;4.77;91.51
47556;BME280;33291;46.222;26.460;2023-02-26T05:20:02;95289.06;;;4.82;91.80
47556;BME280;33291;46.222;26.460;2023-02-26T05:22:27;95289.34;;;4.78;92.29
47556;BME280;33291;46.222;26.460;2023-02-26T05:24:53;95287.81;;;4.76;92.59
47556;BME280;33291;46.222;26.460;2023-02-26T05:27:18;95285.25;;;4.76;92.76
47556;BME280;33291;46.222;26.460;2023-02-26T05:29:44;95293.25;;;4.73;93.37
47556;BME280;33291;46.222;26.460;2023-02-26T05:32:10;95288.22;;;4.71;93.38
47556;BME280;33291;46.222;26.460;2023-02-26T05:34:35;95300.72;;;4.76;93.97
47556;BME280;33291;46.222;26.460;2023-02-26T05:37:01;95305.34;;;4.72;94.39
47556;BME280;33291;46.222;26.460;2023-02-26T05:39:27;95305.47;;;4.71;94.36
47556;BME280;33291;46.222;26.460;2023-02-26T05:41:52;95308.19;;;4.69;94.92
47556;BME280;33291;46.222;26.460;2023-02-26T05:44:20;95298.25;;;4.65;94.94
47556;BME280;33291;46.222;26.460;2023-02-26T05:46:45;95301.53;;;4.67;94.89
47556;BME280;33291;46.222;26.460;2023-02-26T05:49:11;95307.75;;;4.64;94.45
47556;BME280;33291;46.222;26.460;2023-02-26T05:51:37;95318.66;;;4.68;94.68
47556;BME280;33291;46.222;26.460;2023-02-26T05:54:04;95310.31;;;4.64;94.46
47556;BME280;33291;46.222;26.460;2023-02-26T05:56:29;95317.53;;;4.70;94.61
47556;BME280;33291;46.222;26.460;2023-02-26T05:58:55;95309.41;;;4.65;94.59
47556;BME280;33291;46.222;26.460;2023-02-26T06:01:20;95314.41;;;4.67;94.67
47556;BME280;33291;46.222;26.460;2023-02-26T06:03:45;95320.50;;;4.66;94.94
47556;BME280;33291;46.222;26.460;2023-02-26T06:06:12;95332.47;;;4.67;94.39
47556;BME280;33291;46.222;26.460;2023-02-26T06:08:39;95338.69;;;4.64;94.58
47556;BME280;33291;46.222;26.460;2023-02-26T06:11:04;95331.63;;;4.56;94.42
47556;BME280;33291;46.222;26.460;2023-02-26T06:13:30;95310.66;;;4.40;94.19
47556;BME280;33291;46.222;26.460;2023-02-26T06:15:55;95330.25;;;4.52;94.04
47556;BME280;33291;46.222;26.460;2023-02-26T06:18:21;95331.88;;;4.53;93.69
47556;BME280;33291;46.222;26.460;2023-02-26T06:20:47;95346.28;;;4.56;93.32
47556;BME280;33291;46.222;26.460;2023-02-26T06:23:13;95349.13;;;4.53;93.49
47556;BME280;33291;46.222;26.460;2023-02-26T06:25:41;95341.38;;;4.53;93.24
47556;BME280;33291;46.222;26.460;2023-02-26T06:28:07;95345.84;;;4.51;92.90
47556;BME280;33291;46.222;26.460;2023-02-26T06:30:33;95348.69;;;4.48;92.94
47556;BME280;33291;46.222;26.460;2023-02-26T06:32:58;95337.28;;;4.40;92.31
47556;BME280;33291;46.222;26.460;2023-02-26T06:35:24;95343.78;;;4.44;92.26
47556;BME280;33291;46.222;26.460;2023-02-26T06:37:49;95335.63;;;4.39;91.98
47556;BME280;33291;46.222;26.460;2023-02-26T06:40:15;95341.03;;;4.36;91.88
47556;BME280;33291;46.222;26.460;2023-02-26T06:42:40;95347.97;;;4.36;91.90
47556;BME280;33291;46.222;26.460;2023-02-26T06:45:06;95359.09;;;4.36;91.56
47556;BME280;33291;46.222;26.460;2023-02-26T06:47:32;95348.34;;;4.31;91.76
47556;BME280;33291;46.222;26.460;2023-02-26T06:49:57;95356.50;;;4.36;91.35
47556;BME280;33291;46.222;26.460;2023-02-26T06:52:23;95359.78;;;4.38;91.18
47556;BME280;33291;46.222;26.460;2023-02-26T06:54:48;95354.63;;;4.38;91.34
47556;BME280;33291;46.222;26.460;2023-02-26T06:57:14;95364.94;;;4.38;91.04
47556;BME280;33291;46.222;26.460;2023-02-26T06:59:39;95352.56;;;4.32;91.10
47556;BME280;33291;46.222;26.460;2023-02-26T07:02:05;95361.41;;;4.39;90.62
47556;BME280;33291;46.222;26.460;2023-02-26T07:04:30;95364.66;;;4.41;91.08
47556;BME280;33291;46.222;26.460;2023-02-26T07:06:56;95334.47;;;4.22;90.85
47556;BME280;33291;46.222;26.460;2023-02-26T07:09:21;95371.47;;;4.42;90.66
47556;BME280;33291;46.222;26.460;2023-02-26T07:11:47;95370.09;;;4.38;90.56
47556;BME280;33291;46.222;26.460;2023-02-26T07:14:12;95342.75;;;4.26;90.64
47556;BME280;33291;46.222;26.460;2023-02-26T07:16:38;95362.47;;;4.37;90.85
47556;BME280;33291;46.222;26.460;2023-02-26T07:19:04;95376.88;;;4.39;91.01
47556;BME280;33291;46.222;26.460;2023-02-26T07:21:29;95374.97;;;4.41;91.03
47556;BME280;33291;46.222;26.460;2023-02-26T07:23:55;95377.44;;;4.43;91.63
47556;BME280;33291;46.222;26.460;2023-02-26T07:26:20;95377.44;;;4.43;91.32
47556;BME280;33291;46.222;26.460;2023-02-26T07:28:46;95379.22;;;4.42;91.35
47556;BME280;33291;46.222;26.460;2023-02-26T07:31:11;95386.81;;;4.44;91.22
47556;BME280;33291;46.222;26.460;2023-02-26T07:33:37;95376.88;;;4.39;91.28
47556;BME280;33291;46.222;26.460;2023-02-26T07:36:04;95373.91;;;4.44;91.76
47556;BME280;33291;46.222;26.460;2023-02-26T07:38:30;95384.09;;;4.45;91.74
47556;BME280;33291;46.222;26.460;2023-02-26T07:40:55;95385.63;;;4.48;91.52
47556;BME280;33291;46.222;26.460;2023-02-26T07:43:22;95388.59;;;4.43;91.72
47556;BME280;33291;46.222;26.460;2023-02-26T07:45:51;95395.09;;;4.48;91.56
47556;BME280;33291;46.222;26.460;2023-02-26T07:48:17;95394.41;;;4.45;91.42
47556;BME280;33291;46.222;26.460;2023-02-26T07:50:44;95386.94;;;4.42;91.37
47556;BME280;33291;46.222;26.460;2023-02-26T07:53:10;95387.22;;;4.49;91.00
47556;BME280;33291;46.222;26.460;2023-02-26T07:55:35;95394.03;;;4.50;91.17
47556;BME280;33291;46.222;26.460;2023-02-26T07:58:01;95390.78;;;4.48;91.09
47556;BME280;33291;46.222;26.460;2023-02-26T08:00:27;95403.66;;;4.48;91.31
47556;BME280;33291;46.222;26.460;2023-02-26T08:02:52;95394.41;;;4.45;91.28
47556;BME280;33291;46.222;26.460;2023-02-26T08:05:18;95405.28;;;4.49;91.09
47556;BME280;33291;46.222;26.460;2023-02-26T08:07:43;95407.06;;;4.49;91.17
47556;BME280;33291;46.222;26.460;2023-02-26T08:10:10;95410.56;;;4.48;91.27
47556;BME280;33291;46.222;26.460;2023-02-26T08:12:36;95395.88;;;4.38;91.57
47556;BME280;33291;46.222;26.460;2023-02-26T08:15:02;95412.34;;;4.47;91.98
47556;BME280;33291;46.222;26.460;2023-02-26T08:17:27;95412.22;;;4.49;92.42
47556;BME280;33291;46.222;26.460;2023-02-26T08:19:53;95386.78;;;4.34;92.45
47556;BME280;33291;46.222;26.460;2023-02-26T08:22:19;95404.34;;;4.50;93.04
47556;BME280;33291;46.222;26.460;2023-02-26T08:24:45;95424.59;;;4.55;93.04
47556;BME280;33291;46.222;26.460;2023-02-26T08:27:10;95409.00;;;4.56;92.86
47556;BME280;33291;46.222;26.460;2023-02-26T08:29:36;95405.47;;;4.57;92.79
47556;BME280;33291;46.222;26.460;2023-02-26T08:32:01;95406.41;;;4.56;92.69
47556;BME280;33291;46.222;26.460;2023-02-26T08:34:27;95424.34;;;4.58;92.81
47556;BME280;33291;46.222;26.460;2023-02-26T08:36:52;95390.72;;;4.38;92.98
47556;BME280;33291;46.222;26.460;2023-02-26T08:39:18;95422.00;;;4.55;92.59
47556;BME280;33291;46.222;26.460;2023-02-26T08:41:43;95426.25;;;4.56;92.50
47556;BME280;33291;46.222;26.460;2023-02-26T08:44:09;95423.66;;;4.56;92.27
47556;BME280;33291;46.222;26.460;2023-02-26T08:46:35;95432.06;;;4.58;92.30
47556;BME280;33291;46.222;26.460;2023-02-26T08:49:00;95428.56;;;4.59;92.05
47556;BME280;33291;46.222;26.460;2023-02-26T08:51:26;95417.13;;;4.52;93.08
47556;BME280;33291;46.222;26.460;2023-02-26T08:53:51;95423.66;;;4.56;92.30
47556;BME280;33291;46.222;26.460;2023-02-26T08:56:17;95436.44;;;4.57;92.01
47556;BME280;33291;46.222;26.460;2023-02-26T08:58:43;95408.63;;;4.40;91.94
47556;BME280;33291;46.222;26.460;2023-02-26T09:01:09;95419.00;;;4.50;91.96
47556;BME280;33291;46.222;26.460;2023-02-26T09:03:35;95424.84;;;4.52;92.45
47556;BME280;33291;46.222;26.460;2023-02-26T09:06:01;95442.25;;;4.59;92.26
47556;BME280;33291;46.222;26.460;2023-02-26T09:08:27;95435.97;;;4.52;92.01
47556;BME280;33291;46.222;26.460;2023-02-26T09:10:52;95434.22;;;4.53;91.84
47556;BME280;33291;46.222;26.460;2023-02-26T09:13:18;95445.91;;;4.57;91.65
47556;BME280;33291;46.222;26.460;2023-02-26T09:15:43;95451.31;;;4.54;91.97
47556;BME280;33291;46.222;26.460;2023-02-26T09:18:09;95439.38;;;4.53;92.07
47556;BME280;33291;46.222;26.460;2023-02-26T09:20:41;95454.34;;;4.59;92.16
47556;BME280;33291;46.222;26.460;2023-02-26T09:23:07;95455.97;;;4.60;91.91
47556;BME280;33291;46.222;26.460;2023-02-26T09:25:32;95457.59;;;4.61;92.28
47556;BME280;33291;46.222;26.460;2023-02-26T09:27:58;95462.63;;;4.62;92.31
47556;BME280;33291;46.222;26.460;2023-02-26T09:30:23;95463.44;;;4.63;92.36
47556;BME280;33291;46.222;26.460;2023-02-26T09:32:49;95471.19;;;4.63;92.68
47556;BME280;33291;46.222;26.460;2023-02-26T09:35:14;95460.88;;;4.63;92.59
47556;BME280;33291;46.222;26.460;2023-02-26T09:37:40;95461.72;;;4.63;92.86
47556;BME280;33291;46.222;26.460;2023-02-26T09:40:06;95455.97;;;4.60;92.88
47556;BME280;33291;46.222;26.460;2023-02-26T09:45:00;95473.53;;;4.66;92.94
47556;BME280;33291;46.222;26.460;2023-02-26T09:47:30;95477.72;;;4.67;93.21
47556;BME280;33291;46.222;26.460;2023-02-26T09:50:15;95478.00;;;4.64;92.90
47556;BME280;33291;46.222;26.460;2023-02-26T09:55:30;95479.63;;;4.65;92.92
47556;BME280;33291;46.222;26.460;2023-02-26T09:58:01;95475.41;;;4.64;92.66
47556;BME280;33291;46.222;26.460;2023-02-26T10:09:20;95475.91;;;4.58;92.15
47556;BME280;33291;46.222;26.460;2023-02-26T10:12:01;95477.81;;;4.56;92.02
47556;BME280;33291;46.222;26.460;2023-02-26T10:17:27;95497.22;;;4.60;92.20
47556;BME280;33291;46.222;26.460;2023-02-26T10:20:00;95478.19;;;4.51;92.13
47556;BME280;33291;46.222;26.460;2023-02-26T10:22:31;95477.38;;;4.51;91.97
47556;BME280;33291;46.222;26.460;2023-02-26T10:25:13;95475.88;;;4.48;92.46
47556;BME280;33291;46.222;26.460;2023-02-26T10:28:00;95495.88;;;4.56;92.38
47556;BME280;33291;46.222;26.460;2023-02-26T10:33:09;95487.44;;;4.54;92.01
47556;BME280;33291;46.222;26.460;2023-02-26T10:35:43;95471.66;;;4.47;91.96
47556;BME280;33291;46.222;26.460;2023-02-26T10:38:15;95476.56;;;4.50;92.11
47556;BME280;33291;46.222;26.460;2023-02-26T10:43:18;95485.94;;;4.51;91.61
47556;BME280;33291;46.222;26.460;2023-02-26T10:45:57;95478.19;;;4.51;91.44
47556;BME280;33291;46.222;26.460;2023-02-26T10:51:40;95473.69;;;4.43;91.45
47556;BME280;33291;46.222;26.460;2023-02-26T10:54:18;95471.34;;;4.40;90.97
47556;BME280;33291;46.222;26.460;2023-02-26T10:56:45;95478.84;;;4.43;90.51
47556;BME280;33291;46.222;26.460;2023-02-26T10:59:11;95466.69;;;4.34;90.40
47556;BME280;33291;46.222;26.460;2023-02-26T11:01:36;95480.94;;;4.38;90.36
47556;BME280;33291;46.222;26.460;2023-02-26T11:04:06;95468.56;;;4.32;90.64
47556;BME280;33291;46.222;26.460;2023-02-26T11:06:57;95476.63;;;4.39;90.69
47556;BME280;33291;46.222;26.460;2023-02-26T11:11:54;95485.84;;;4.41;90.18
47556;BME280;33291;46.222;26.460;2023-02-26T11:14:21;95479.75;;;4.42;90.17
47556;BME280;33291;46.222;26.460;2023-02-26T11:16:52;95478.97;;;4.42;90.24
47556;BME280;33291;46.222;26.460;2023-02-26T11:19:25;95476.25;;;4.43;90.66
47556;BME280;33291;46.222;26.460;2023-02-26T11:21:52;95465.06;;;4.33;90.36
47556;BME280;33291;46.222;26.460;2023-02-26T11:24:31;95488.91;;;4.47;89.89
47556;BME280;33291;46.222;26.460;2023-02-26T11:26:59;95485.06;;;4.41;89.94
47556;BME280;33291;46.222;26.460;2023-02-26T11:29:38;95480.03;;;4.39;90.02
47556;BME280;33291;46.222;26.460;2023-02-26T11:32:06;95485.19;;;4.39;89.63
47556;BME280;33291;46.222;26.460;2023-02-26T11:34:38;95499.34;;;4.45;89.95
47556;BME280;33291;46.222;26.460;2023-02-26T11:37:04;95486.44;;;4.45;89.63
47556;BME280;33291;46.222;26.460;2023-02-26T11:39:33;95490.63;;;4.46;89.48
47556;BME280;33291;46.222;26.460;2023-02-26T11:42:01;95483.41;;;4.40;89.19
47556;BME280;33291;46.222;26.460;2023-02-26T11:44:39;95507.06;;;4.45;89.51
47556;BME280;33291;46.222;26.460;2023-02-26T11:47:12;95494.31;;;4.43;89.33
47556;BME280;33291;46.222;26.460;2023-02-26T11:49:44;95499.47;;;4.43;89.15
47556;BME280;33291;46.222;26.460;2023-02-26T11:52:21;95487.88;;;4.38;89.25
47556;BME280;33291;46.222;26.460;2023-02-26T11:54:54;95497.94;;;4.41;89.20
47556;BME280;33291;46.222;26.460;2023-02-26T11:57:27;95503.91;;;4.41;88.83
47556;BME280;33291;46.222;26.460;2023-02-26T11:59:55;95509.31;;;4.38;88.85
47556;BME280;33291;46.222;26.460;2023-02-26T12:02:23;95516.13;;;4.39;88.85
47556;BME280;33291;46.222;26.460;2023-02-26T12:04:55;95507.13;;;4.34;88.96
47556;BME280;33291;46.222;26.460;2023-02-26T12:07:22;95523.97;;;4.38;89.14
47556;BME280;33291;46.222;26.460;2023-02-26T12:09:47;95526.00;;;4.34;89.84
47556;BME280;33291;46.222;26.460;2023-02-26T12:14:59;95540.50;;;4.35;89.71
47556;BME280;33291;46.222;26.460;2023-02-26T12:26:10;95544.94;;;4.12;90.26
47556;BME280;33291;46.222;26.460;2023-02-26T12:48:45;95575.38;;;4.18;92.53
47556;BME280;33291;46.222;26.460;2023-02-26T12:59:37;95603.72;;;4.18;93.51
47556;BME280;33291;46.222;26.460;2023-02-26T13:08:29;95610.91;;;4.15;93.51
47556;BME280;33291;46.222;26.460;2023-02-26T13:13:38;95622.13;;;4.02;94.68
47556;BME280;33291;46.222;26.460;2023-02-26T13:21:39;95619.03;;;3.87;95.99
47556;BME280;33291;46.222;26.460;2023-02-26T13:24:26;95621.25;;;3.92;95.78
47556;BME280;33291;46.222;26.460;2023-02-26T13:26:56;95635.06;;;3.91;95.41
47556;BME280;33291;46.222;26.460;2023-02-26T13:29:37;95621.25;;;3.92;95.44
47556;BME280;33291;46.222;26.460;2023-02-26T13:32:11;95639.72;;;3.97;95.58
47556;BME280;33291;46.222;26.460;2023-02-26T13:34:43;95635.38;;;3.98;96.25
47556;BME280;33291;46.222;26.460;2023-02-26T13:37:37;95629.09;;;3.90;97.75
47556;BME280;33291;46.222;26.460;2023-02-26T14:06:43;95685.88;;;3.78;97.81
47556;BME280;33291;46.222;26.460;2023-02-26T14:12:35;95701.34;;;3.78;97.60
47556;BME280;33291;46.222;26.460;2023-02-26T14:15:18;95707.31;;;3.78;97.39
47556;BME280;33291;46.222;26.460;2023-02-26T14:17:59;95706.94;;;3.71;96.54
47556;BME280;33291;46.222;26.460;2023-02-26T14:20:30;95708.84;;;3.69;96.73
47556;BME280;33291;46.222;26.460;2023-02-26T14:23:33;95720.28;;;3.65;96.42
47556;BME280;33291;46.222;26.460;2023-02-26T14:26:05;95714.69;;;3.60;96.54
47556;BME280;33291;46.222;26.460;2023-02-26T14:32:03;95735.97;;;3.62;96.77
47556;BME280;33291;46.222;26.460;2023-02-26T14:34:36;95742.06;;;3.61;96.63
47556;BME280;33291;46.222;26.460;2023-02-26T14:37:07;95744.97;;;3.56;96.22
47556;BME280;33291;46.222;26.460;2023-02-26T14:39:43;95745.53;;;3.49;96.68
47556;BME280;33291;46.222;26.460;2023-02-26T14:42:19;95749.88;;;3.48;96.43
47556;BME280;33291;46.222;26.460;2023-02-26T14:44:49;95744.16;;;3.45;96.14
47556;BME280;33291;46.222;26.460;2023-02-26T14:47:18;95746.72;;;3.45;95.87
47556;BME280;33291;46.222;26.460;2023-02-26T14:49:45;95758.66;;;3.46;95.89
47556;BME280;33291;46.222;26.460;2023-02-26T14:55:26;95761.34;;;3.44;94.79
47556;BME280;33291;46.222;26.460;2023-02-26T15:04:13;95775.91;;;3.32;94.89
47556;BME280;33291;46.222;26.460;2023-02-26T15:09:14;95787.63;;;3.36;95.06
47556;BME280;33291;46.222;26.460;2023-02-26T15:12:08;95797.25;;;3.34;94.97
47556;BME280;33291;46.222;26.460;2023-02-26T15:23:49;95816.03;;;3.24;95.16
47556;BME280;33291;46.222;26.460;2023-02-26T15:26:28;95801.53;;;3.23;95.09
47556;BME280;33291;46.222;26.460;2023-02-26T15:28:56;95826.34;;;3.24;95.00
47556;BME280;33291;46.222;26.460;2023-02-26T15:31:40;95834.16;;;3.22;94.24
47556;BME280;33291;46.222;26.460;2023-02-26T15:34:12;95830.84;;;3.20;93.99
47556;BME280;33291;46.222;26.460;2023-02-26T15:36:46;95844.47;;;3.22;94.18
47556;BME280;33291;46.222;26.460;2023-02-26T15:39:15;95842.00;;;3.20;94.23
47556;BME280;33291;46.222;26.460;2023-02-26T15:41:42;95848.75;;;3.22;94.44
47556;BME280;33291;46.222;26.460;2023-02-26T15:44:13;95844.78;;;3.17;94.41
47556;BME280;33291;46.222;26.460;2023-02-26T15:46:42;95853.53;;;3.15;94.13
47556;BME280;33291;46.222;26.460;2023-02-26T15:49:23;95850.03;;;3.16;94.07
47556;BME280;33291;46.222;26.460;2023-02-26T15:51:51;95867.09;;;3.17;94.50
47556;BME280;33291;46.222;26.460;2023-02-26T15:54:20;95872.78;;;3.22;94.33
47556;BME280;33291;46.222;26.460;2023-02-26T15:56:46;95868.88;;;3.16;94.81
47556;BME280;33291;46.222;26.460;2023-02-26T15:59:17;95881.31;;;3.23;94.83
47556;BME280;33291;46.222;26.460;2023-02-26T16:01:43;95876.47;;;3.18;94.59
47556;BME280;33291;46.222;26.460;2023-02-26T16:04:15;95883.41;;;3.17;94.57
47556;BME280;33291;46.222;26.460;2023-02-26T16:06:44;95895.94;;;3.22;94.45
47556;BME280;33291;46.222;26.460;2023-02-26T16:09:24;95876.41;;;3.07;94.88